createdAt,value
2023-05-12T00:00:37.116Z,59.95
2023-05-12T00:03:12.926Z,59.69
2023-05-12T00:05:40.772Z,60.12
2023-05-12T00:08:08.647Z,62.51
2023-05-12T00:10:37.057Z,65.51
2023-05-12T00:13:04.989Z,65.23
2023-05-12T00:15:32.970Z,62.84
2023-05-12T00:18:00.922Z,59.39
2023-05-12T00:20:28.849Z,56.41
2023-05-12T00:22:56.896Z,55.64
2023-05-12T00:25:24.895Z,56.54
2023-05-12T00:27:52.694Z,57.10
2023-05-12T00:30:21.330Z,57.53
2023-05-12T00:32:49.526Z,58.31
2023-05-12T00:35:17.782Z,59.14
2023-05-12T00:37:45.581Z,59.80
2023-05-12T00:40:13.500Z,62.60
2023-05-12T00:42:41.638Z,65.03
2023-05-12T00:45:10.084Z,63.98
2023-05-12T00:47:38.072Z,61.75
2023-05-12T00:50:08.581Z,57.96
2023-05-12T00:52:36.781Z,55.64
2023-05-12T00:55:05.754Z,56.21
2023-05-12T00:57:33.870Z,56.61
2023-05-12T01:00:01.823Z,57.28
2023-05-12T01:02:29.751Z,57.67
2023-05-12T01:04:57.683Z,58.44
2023-05-12T01:07:28.026Z,59.12
2023-05-12T01:09:56.922Z,59.53
2023-05-12T01:12:26.819Z,59.53
2023-05-12T01:14:57.000Z,59.92
2023-05-12T01:17:36.079Z,62.30
2023-05-12T01:20:08.420Z,65.33
2023-05-12T01:22:39.046Z,64.67
2023-05-12T01:25:13.002Z,63.19
2023-05-12T01:27:42.995Z,59.72
2023-05-12T01:30:16.904Z,56.97
2023-05-12T01:32:44.869Z,56.15
2023-05-12T01:35:12.743Z,56.94
2023-05-12T01:37:40.624Z,57.98
2023-05-12T01:40:09.054Z,58.59
2023-05-12T01:42:41.092Z,59.27
2023-05-12T01:45:09.849Z,59.64
2023-05-12T01:47:37.790Z,62.60
2023-05-12T01:50:06.966Z,65.18
2023-05-12T01:52:35.125Z,64.60
2023-05-12T01:55:03.097Z,63.27
2023-05-12T01:57:30.975Z,62.25
2023-05-12T01:59:58.834Z,58.17
2023-05-12T02:02:26.741Z,55.76
2023-05-12T02:04:54.755Z,56.09
2023-05-12T02:07:23.004Z,56.52
2023-05-12T02:09:51.291Z,57.44
2023-05-12T02:12:19.082Z,57.97
2023-05-12T02:14:46.858Z,58.75
2023-05-12T02:17:14.669Z,59.60
2023-05-12T02:19:42.496Z,59.89
2023-05-12T02:22:10.304Z,60.08
2023-05-12T02:24:38.086Z,63.08
2023-05-12T02:27:06.096Z,65.87
2023-05-12T02:29:33.857Z,65.19
2023-05-12T02:32:01.841Z,63.56
2023-05-12T02:34:29.810Z,61.62
2023-05-12T02:36:57.528Z,58.62
2023-05-12T02:39:25.345Z,56.18
2023-05-12T02:41:53.148Z,56.29
2023-05-12T02:44:22.525Z,56.77
2023-05-12T02:46:50.412Z,57.65
2023-05-12T02:49:18.279Z,58.47
2023-05-12T02:51:46.531Z,59.57
2023-05-12T02:54:14.252Z,59.79
2023-05-12T02:56:42.096Z,61.91
2023-05-12T02:59:09.897Z,64.52
2023-05-12T03:01:37.977Z,64.25
2023-05-12T03:04:06.025Z,63.22
2023-05-12T03:06:33.853Z,61.09
2023-05-12T03:09:01.665Z,57.90
2023-05-12T03:11:29.454Z,56.24
2023-05-12T03:13:57.218Z,56.58
2023-05-12T03:16:25.140Z,57.03
2023-05-12T03:18:53.868Z,57.86
2023-05-12T03:21:22.375Z,58.41
2023-05-12T03:23:50.163Z,58.62
2023-05-12T03:26:18.545Z,59.06
2023-05-12T03:28:46.400Z,59.50
2023-05-12T03:31:14.218Z,60.24
2023-05-12T03:33:42.011Z,60.99
2023-05-12T03:36:10.441Z,62.88
2023-05-12T03:38:38.262Z,64.38
2023-05-12T03:41:07.210Z,62.00
2023-05-12T03:43:36.044Z,57.01
2023-05-12T03:46:04.151Z,53.33
2023-05-12T03:48:32.239Z,52.54
2023-05-12T03:51:00.482Z,51.00
2023-05-12T03:53:28.432Z,49.42
2023-05-12T03:55:56.291Z,47.37
2023-05-12T03:58:24.744Z,45.60
2023-05-12T04:00:52.498Z,43.56
2023-05-12T04:03:20.318Z,42.31
2023-05-12T04:05:48.180Z,40.30
2023-05-12T04:08:16.101Z,38.81
2023-05-12T04:10:43.946Z,37.39
2023-05-12T04:13:11.769Z,36.15
2023-05-12T04:15:39.992Z,34.81
2023-05-12T04:18:07.692Z,33.97
2023-05-12T04:20:35.538Z,33.27
2023-05-12T04:23:03.356Z,32.35
2023-05-12T04:25:31.268Z,31.16
2023-05-12T04:27:59.248Z,30.46
2023-05-12T04:30:27.051Z,29.96
2023-05-12T04:32:54.944Z,29.32
2023-05-12T04:35:22.786Z,28.11
2023-05-12T04:37:51.184Z,27.10
2023-05-12T04:40:19.272Z,26.19
2023-05-12T04:42:47.414Z,25.48
2023-05-12T04:45:15.198Z,24.66
2023-05-12T04:47:43.055Z,23.46
2023-05-12T04:50:11.707Z,22.52
2023-05-12T04:52:39.585Z,22.86
2023-05-12T04:55:08.835Z,22.55
2023-05-12T04:57:36.718Z,22.30
2023-05-12T05:00:07.154Z,20.72
2023-05-12T05:02:35.162Z,21.76
2023-05-12T05:05:03.237Z,23.16
2023-05-12T05:07:31.267Z,23.55
2023-05-12T05:09:59.136Z,23.37
2023-05-12T05:12:26.899Z,22.59
2023-05-12T05:14:54.856Z,23.42
2023-05-12T05:17:22.763Z,23.56
2023-05-12T05:19:58.330Z,22.33
2023-05-12T05:22:27.510Z,23.05
2023-05-12T05:24:55.429Z,23.51
2023-05-12T05:27:23.204Z,23.41
2023-05-12T05:29:51.329Z,24.87
2023-05-12T05:32:19.124Z,25.90
2023-05-12T05:34:46.890Z,27.07
2023-05-12T05:37:14.699Z,27.72
2023-05-12T05:39:42.640Z,28.53
2023-05-12T05:42:10.443Z,29.46
2023-05-12T05:44:38.264Z,31.03
2023-05-12T05:47:06.174Z,31.54
2023-05-12T05:49:34.026Z,32.32
2023-05-12T05:52:01.789Z,32.91
2023-05-12T05:54:29.524Z,33.85
2023-05-12T05:56:57.403Z,34.61
2023-05-12T05:59:25.562Z,35.04
2023-05-12T06:01:53.418Z,35.24
2023-05-12T06:04:21.401Z,35.99
2023-05-12T06:06:49.225Z,36.45
2023-05-12T06:09:17.251Z,36.72
2023-05-12T06:11:45.106Z,37.23
2023-05-12T06:14:13.018Z,37.38
2023-05-12T06:16:40.871Z,37.84
2023-05-12T06:19:09.518Z,38.29
2023-05-12T06:21:37.383Z,38.39
2023-05-12T06:24:05.376Z,38.39
2023-05-12T06:26:33.488Z,38.21
2023-05-12T06:29:01.305Z,38.35
2023-05-12T06:31:29.312Z,38.48
2023-05-12T06:33:57.153Z,38.11
2023-05-12T06:36:24.975Z,38.32
2023-05-12T06:38:53.992Z,38.32
2023-05-12T06:41:23.984Z,38.89
2023-05-12T06:43:52.253Z,39.35
2023-05-12T06:46:20.233Z,39.08
2023-05-12T06:48:48.076Z,39.23
2023-05-12T06:51:15.921Z,38.97
2023-05-12T06:53:43.773Z,38.89
2023-05-12T06:56:12.335Z,39.22
2023-05-12T06:58:40.118Z,38.90
2023-05-12T07:01:08.098Z,39.08
2023-05-12T07:03:36.255Z,38.96
2023-05-12T07:06:04.393Z,39.17
2023-05-12T07:08:32.344Z,38.85
2023-05-12T07:11:03.166Z,38.66
2023-05-12T07:13:31.073Z,38.94
2023-05-12T07:15:59.942Z,39.00
2023-05-12T07:18:27.791Z,38.66
2023-05-12T07:20:55.829Z,38.36
2023-05-12T07:23:23.568Z,38.65
2023-05-12T07:25:51.419Z,38.92
2023-05-12T07:28:19.288Z,39.01
2023-05-12T07:30:47.461Z,38.73
2023-05-12T07:33:15.379Z,38.45
2023-05-12T07:35:43.561Z,38.44
2023-05-12T07:38:11.349Z,38.72
2023-05-12T07:40:39.089Z,38.35
2023-05-12T07:43:06.865Z,38.24
2023-05-12T07:45:34.663Z,38.35
2023-05-12T07:48:02.659Z,37.88
2023-05-12T07:50:30.699Z,37.74
2023-05-12T07:52:58.452Z,37.48
2023-05-12T07:55:26.647Z,37.42
2023-05-12T07:57:54.445Z,37.72
2023-05-12T08:00:22.441Z,37.19
2023-05-12T08:02:50.326Z,36.67
2023-05-12T08:05:18.399Z,36.86
2023-05-12T08:07:46.475Z,36.49
2023-05-12T08:10:14.347Z,36.08
2023-05-12T08:12:42.922Z,36.20
2023-05-12T08:15:11.474Z,36.26
2023-05-12T08:17:39.435Z,35.50
2023-05-12T08:20:09.162Z,35.39
2023-05-12T08:22:36.976Z,35.16
2023-05-12T08:25:06.137Z,35.19
2023-05-12T08:27:33.972Z,34.27
2023-05-12T08:30:01.828Z,33.78
2023-05-12T08:32:29.706Z,33.93
2023-05-12T08:34:57.647Z,33.26
2023-05-12T08:37:26.330Z,32.71
2023-05-12T08:39:54.395Z,32.94
2023-05-12T08:42:44.566Z,32.45
2023-05-12T08:45:12.587Z,32.33
2023-05-12T08:47:43.792Z,31.80
2023-05-12T08:50:14.403Z,30.42
2023-05-12T08:52:42.395Z,30.79
2023-05-12T08:55:11.276Z,30.71
2023-05-12T08:57:45.546Z,30.70
2023-05-12T09:00:15.328Z,29.95
2023-05-12T09:02:52.887Z,30.09
2023-05-12T09:05:23.466Z,30.18
2023-05-12T09:07:55.942Z,30.48
2023-05-12T09:10:34.976Z,30.57
2023-05-12T09:13:23.570Z,30.58
2023-05-12T09:15:56.860Z,30.73
2023-05-12T09:18:24.904Z,30.45
2023-05-12T09:20:52.783Z,29.70
2023-05-12T09:23:23.272Z,29.52
2023-05-12T09:26:01.848Z,28.42
2023-05-12T09:28:38.351Z,28.32
2023-05-12T09:31:23.142Z,28.04
2023-05-12T09:33:52.555Z,28.58
2023-05-12T09:36:23.014Z,28.46
2023-05-12T09:39:04.884Z,27.82
2023-05-12T09:41:37.830Z,28.00
2023-05-12T09:44:08.631Z,27.85
2023-05-12T09:46:38.655Z,27.90
2023-05-12T09:49:06.630Z,27.91
2023-05-12T09:51:34.550Z,27.45
2023-05-12T09:54:02.608Z,27.22
2023-05-12T09:56:32.551Z,27.25
2023-05-12T09:59:04.600Z,27.28
2023-05-12T10:01:32.672Z,27.14
2023-05-12T10:04:01.901Z,27.09
2023-05-12T10:06:41.557Z,26.95
2023-05-12T10:09:19.557Z,27.26
2023-05-12T10:11:51.950Z,27.16
2023-05-12T10:14:23.620Z,26.39
2023-05-12T10:16:52.912Z,26.43
2023-05-12T10:19:22.708Z,27.05
2023-05-12T10:21:51.338Z,26.59
2023-05-12T10:24:22.125Z,26.40
2023-05-12T10:26:50.860Z,26.49
2023-05-12T10:29:18.961Z,26.81
2023-05-12T10:31:48.047Z,26.57
2023-05-12T10:34:19.164Z,26.75
2023-05-12T10:36:50.276Z,26.52
2023-05-12T10:39:18.498Z,26.02
2023-05-12T10:41:46.319Z,25.99
2023-05-12T10:44:14.149Z,25.82
2023-05-12T10:46:42.336Z,25.63
2023-05-12T10:49:13.117Z,25.80
2023-05-12T10:51:50.074Z,25.46
2023-05-12T10:55:52.266Z,25.45
2023-05-12T10:58:20.891Z,25.41
2023-05-12T11:00:52.660Z,25.28
2023-05-12T11:03:25.834Z,25.29
2023-05-12T11:06:07.084Z,25.42
2023-05-12T11:08:37.817Z,24.78
2023-05-12T11:11:06.421Z,24.30
2023-05-12T11:13:35.782Z,24.40
2023-05-12T11:16:03.859Z,24.20
2023-05-12T11:18:31.838Z,23.81
2023-05-12T11:21:12.242Z,23.71
2023-05-12T11:23:40.126Z,24.09
2023-05-12T11:26:20.093Z,23.84
2023-05-12T11:28:47.958Z,23.47
2023-05-12T11:31:20.933Z,22.99
2023-05-12T11:33:55.946Z,23.06
2023-05-12T11:36:40.463Z,22.77
2023-05-12T11:39:16.174Z,22.53
2023-05-12T11:41:45.178Z,22.06
2023-05-12T11:44:15.965Z,22.31
2023-05-12T11:47:01.480Z,22.33
2023-05-12T11:49:31.620Z,21.99
2023-05-12T11:52:02.485Z,21.96
2023-05-12T11:54:31.412Z,21.57
2023-05-12T11:56:59.640Z,21.32
2023-05-12T11:59:33.439Z,20.97
2023-05-12T12:02:04.120Z,20.92
2023-05-12T12:04:37.057Z,21.19
2023-05-12T12:07:07.298Z,21.13
2023-05-12T12:09:41.958Z,21.17
2023-05-12T12:12:11.776Z,21.23
2023-05-12T12:14:41.703Z,21.06
2023-05-12T12:17:09.681Z,21.29
2023-05-12T12:19:37.523Z,21.51
2023-05-12T12:22:05.627Z,21.57
2023-05-12T12:24:33.672Z,20.62
2023-05-12T12:27:01.687Z,21.21
2023-05-12T12:29:29.581Z,21.43
2023-05-12T12:31:57.626Z,21.52
2023-05-12T12:34:25.464Z,21.63
2023-05-12T12:36:53.309Z,21.67
2023-05-12T12:39:22.009Z,21.35
2023-05-12T12:41:50.438Z,21.42
2023-05-12T12:44:18.280Z,21.22
2023-05-12T12:46:46.211Z,21.29
2023-05-12T12:49:14.595Z,21.23
2023-05-12T12:51:46.354Z,21.43
2023-05-12T12:54:15.866Z,21.61
2023-05-12T12:56:44.727Z,21.44
2023-05-12T12:59:13.062Z,21.40
2023-05-12T13:01:40.896Z,21.42
2023-05-12T13:04:08.787Z,21.53
2023-05-12T13:06:36.923Z,21.66
2023-05-12T13:09:05.267Z,21.69
2023-05-12T13:11:33.200Z,21.70
2023-05-12T13:14:02.453Z,21.16
2023-05-12T13:16:31.148Z,21.40
2023-05-12T13:18:59.054Z,21.11
2023-05-12T13:21:27.291Z,21.14
2023-05-12T13:23:55.133Z,21.17
2023-05-12T13:26:23.717Z,21.10
2023-05-12T13:28:51.499Z,21.23
2023-05-12T13:31:19.437Z,21.43
2023-05-12T13:33:47.964Z,21.49
2023-05-12T13:36:15.790Z,21.60
2023-05-12T13:38:43.653Z,21.60
2023-05-12T13:41:11.483Z,21.75
2023-05-12T13:43:39.497Z,21.95
2023-05-12T13:46:07.277Z,21.74
2023-05-12T13:48:35.904Z,21.75
2023-05-12T13:51:03.889Z,21.81
2023-05-12T13:53:32.358Z,21.79
2023-05-12T13:56:03.691Z,21.81
2023-05-12T13:58:31.965Z,21.93
2023-05-12T14:01:00.293Z,22.09
2023-05-12T14:03:28.114Z,22.03
2023-05-12T14:05:56.016Z,22.06
2023-05-12T14:08:23.963Z,22.23
2023-05-12T14:10:52.126Z,22.31
2023-05-12T14:13:20.254Z,22.45
2023-05-12T14:15:49.681Z,22.24
2023-05-12T14:18:18.358Z,21.72
2023-05-12T14:20:47.084Z,22.00
2023-05-12T14:23:15.093Z,22.08
2023-05-12T14:25:43.046Z,21.88
2023-05-12T14:28:11.114Z,22.30
2023-05-12T14:30:39.839Z,22.36
2023-05-12T14:33:08.269Z,22.13
2023-05-12T14:35:36.414Z,22.27
2023-05-12T14:38:04.666Z,22.03
2023-05-12T14:40:32.580Z,22.09
2023-05-12T14:43:00.344Z,22.35
2023-05-12T14:45:28.555Z,22.57
2023-05-12T14:47:56.463Z,22.49
2023-05-12T14:50:24.474Z,22.23
2023-05-12T14:52:52.930Z,21.82
2023-05-12T14:55:24.717Z,21.86
2023-05-12T14:57:54.217Z,23.42
2023-05-12T15:00:24.225Z,25.68
2023-05-12T15:02:52.521Z,25.55
2023-05-12T15:05:21.223Z,26.04
2023-05-12T15:07:54.028Z,25.80
2023-05-12T15:10:22.780Z,27.27
2023-05-12T15:12:53.739Z,27.09
2023-05-12T15:15:24.798Z,27.34
2023-05-12T15:17:54.729Z,27.68
2023-05-12T15:20:22.590Z,27.88
2023-05-12T15:22:54.602Z,28.49
2023-05-12T15:25:22.708Z,28.66
2023-05-12T15:27:51.166Z,29.50
2023-05-12T15:30:19.189Z,30.04
2023-05-12T15:32:47.719Z,29.79
2023-05-12T15:35:16.637Z,30.65
2023-05-12T15:37:44.519Z,31.00
2023-05-12T15:40:13.806Z,30.64
2023-05-12T15:42:41.610Z,30.45
2023-05-12T15:45:09.971Z,30.59
2023-05-12T15:47:37.936Z,30.49
2023-05-12T15:50:06.843Z,30.82
2023-05-12T15:52:34.805Z,31.52
2023-05-12T15:55:02.627Z,31.40
2023-05-12T15:57:30.457Z,31.31
2023-05-12T15:59:59.877Z,31.76
2023-05-12T16:02:28.000Z,32.35
2023-05-12T16:04:59.173Z,32.23
2023-05-12T16:07:29.784Z,32.82
2023-05-12T16:10:01.319Z,32.79
2023-05-12T16:12:31.587Z,32.69
2023-05-12T16:15:02.778Z,32.68
2023-05-12T16:17:31.386Z,32.67
2023-05-12T16:19:59.875Z,32.69
2023-05-12T16:22:28.313Z,32.41
2023-05-12T16:24:57.674Z,31.78
2023-05-12T16:27:25.718Z,31.31
2023-05-12T16:29:53.813Z,31.08
2023-05-12T16:32:21.983Z,30.88
2023-05-12T16:34:49.970Z,30.67
2023-05-12T16:37:19.007Z,31.01
2023-05-12T16:39:48.874Z,30.97
2023-05-12T16:42:19.731Z,30.88
2023-05-12T16:44:48.534Z,31.20
2023-05-12T16:47:16.390Z,31.38
2023-05-12T16:49:44.273Z,31.06
2023-05-12T16:52:12.624Z,30.89
2023-05-12T16:54:40.503Z,31.10
2023-05-12T16:57:08.305Z,31.38
2023-05-12T16:59:36.988Z,31.03
2023-05-12T17:02:05.821Z,31.05
2023-05-12T17:04:34.455Z,30.98
2023-05-12T17:07:03.576Z,30.79
2023-05-12T17:09:31.390Z,30.83
2023-05-12T17:11:59.656Z,31.05
2023-05-12T17:14:27.845Z,31.10
2023-05-12T17:16:55.703Z,31.06
2023-05-12T17:19:23.748Z,31.04
2023-05-12T17:21:52.252Z,30.78
2023-05-12T17:24:20.067Z,30.47
2023-05-12T17:26:47.917Z,30.49
2023-05-12T17:29:15.764Z,30.72
2023-05-12T17:31:43.914Z,30.95
2023-05-12T17:34:12.425Z,31.28
2023-05-12T17:36:42.948Z,31.72
2023-05-12T17:39:10.907Z,32.15
2023-05-12T17:41:39.102Z,32.74
2023-05-12T17:44:07.364Z,33.46
2023-05-12T17:46:35.480Z,33.97
2023-05-12T17:49:03.561Z,34.81
2023-05-12T17:51:31.883Z,35.40
2023-05-12T17:54:03.987Z,36.06
2023-05-12T17:56:35.293Z,37.26
2023-05-12T17:59:07.176Z,37.73
2023-05-12T18:01:35.772Z,38.31
2023-05-12T18:04:06.896Z,38.89
2023-05-12T18:06:35.043Z,38.77
2023-05-12T18:09:05.977Z,40.34
2023-05-12T18:11:35.110Z,40.46
2023-05-12T18:14:06.064Z,40.94
2023-05-12T18:16:34.522Z,41.02
2023-05-12T18:19:03.999Z,41.52
2023-05-12T18:21:34.841Z,41.82
2023-05-12T18:24:05.721Z,42.15
2023-05-12T18:26:34.062Z,42.80
2023-05-12T18:29:02.048Z,43.31
2023-05-12T18:31:30.337Z,43.78
2023-05-12T18:34:05.950Z,44.23
2023-05-12T18:36:43.848Z,44.67
2023-05-12T18:39:18.348Z,44.70
2023-05-12T18:41:51.591Z,45.23
2023-05-12T18:44:25.473Z,45.82
2023-05-12T18:47:04.337Z,46.06
2023-05-12T18:49:37.787Z,47.03
2023-05-12T18:52:06.689Z,47.74
2023-05-12T18:54:38.063Z,48.29
2023-05-12T18:57:10.939Z,47.96
2023-05-12T18:59:41.873Z,48.78
2023-05-12T19:02:15.129Z,49.11
2023-05-12T19:04:45.836Z,49.48
2023-05-12T19:07:15.663Z,50.08
2023-05-12T19:09:44.653Z,50.51
2023-05-12T19:12:12.560Z,51.00
2023-05-12T19:14:41.054Z,51.60
2023-05-12T19:17:08.979Z,51.97
2023-05-12T19:19:36.918Z,52.35
2023-05-12T19:22:05.039Z,52.46
2023-05-12T19:24:33.738Z,53.15
2023-05-12T19:27:01.804Z,53.17
2023-05-12T19:29:29.694Z,53.25
2023-05-12T19:31:57.697Z,53.11
2023-05-12T19:34:25.764Z,53.49
2023-05-12T19:36:53.713Z,53.89
2023-05-12T19:39:22.526Z,54.51
2023-05-12T19:41:51.785Z,53.98
2023-05-12T19:44:22.518Z,53.95
2023-05-12T19:46:51.157Z,55.78
2023-05-12T19:49:19.154Z,56.26
2023-05-12T19:51:48.792Z,56.71
2023-05-12T19:54:16.783Z,56.25
2023-05-12T19:56:44.569Z,55.95
2023-05-12T19:59:12.539Z,56.70
2023-05-12T20:01:41.700Z,57.40
2023-05-12T20:04:09.572Z,56.40
2023-05-12T20:06:37.637Z,57.75
2023-05-12T20:09:05.479Z,58.35
2023-05-12T20:11:33.180Z,58.75
2023-05-12T20:14:01.322Z,59.34
2023-05-12T20:16:30.068Z,59.62
2023-05-12T20:19:02.656Z,61.81
2023-05-12T20:21:33.994Z,64.34
2023-05-12T20:24:01.998Z,62.88
2023-05-12T20:26:30.803Z,59.94
2023-05-12T20:29:00.381Z,56.95
2023-05-12T20:31:28.624Z,56.02
2023-05-12T20:33:56.728Z,56.34
2023-05-12T20:36:24.440Z,57.12
2023-05-12T20:38:52.395Z,57.41
2023-05-12T20:41:20.194Z,57.74
2023-05-12T20:43:48.126Z,57.94
2023-05-12T20:46:15.966Z,58.94
2023-05-12T20:48:43.831Z,59.58
2023-05-12T20:51:13.083Z,61.67
2023-05-12T20:53:40.960Z,64.51
2023-05-12T20:56:08.973Z,63.04
2023-05-12T20:58:37.044Z,61.44
2023-05-12T21:01:05.017Z,58.74
2023-05-12T21:03:34.219Z,57.08
2023-05-12T21:06:04.899Z,56.13
2023-05-12T21:08:32.764Z,55.74
2023-05-12T21:11:01.016Z,56.41
2023-05-12T21:13:28.972Z,57.13
2023-05-12T21:15:56.915Z,58.20
2023-05-12T21:18:25.080Z,59.31
2023-05-12T21:20:53.186Z,61.33
2023-05-12T21:23:20.947Z,62.86
2023-05-12T21:25:49.304Z,60.43
2023-05-12T21:28:17.803Z,57.15
2023-05-12T21:30:45.564Z,56.35
2023-05-12T21:33:13.553Z,57.37
2023-05-12T21:35:41.605Z,58.45
2023-05-12T21:38:10.241Z,59.52
2023-05-12T21:40:38.919Z,61.51
2023-05-12T21:43:06.728Z,63.82
2023-05-12T21:45:34.488Z,63.53
2023-05-12T21:48:02.340Z,62.31
2023-05-12T21:50:30.334Z,60.88
2023-05-12T21:52:58.211Z,59.43
2023-05-12T21:55:26.541Z,57.96
2023-05-12T21:57:57.026Z,57.85
2023-05-12T22:00:25.070Z,58.31
2023-05-12T22:02:52.915Z,59.31
2023-05-12T22:05:20.917Z,61.09
2023-05-12T22:07:48.759Z,63.94
2023-05-12T22:10:16.823Z,64.00
2023-05-12T22:12:45.983Z,62.72
2023-05-12T22:15:13.861Z,60.88
2023-05-12T22:17:42.106Z,58.57
2023-05-12T22:20:11.063Z,57.08
2023-05-12T22:22:39.009Z,57.50
2023-05-12T22:25:07.648Z,58.31
2023-05-12T22:27:35.446Z,59.15
2023-05-12T22:30:04.180Z,59.65
2023-05-12T22:32:32.074Z,61.85
2023-05-12T22:34:59.935Z,63.57
2023-05-12T22:37:27.920Z,63.52
2023-05-12T22:39:55.759Z,62.32
2023-05-12T22:42:23.914Z,60.83
2023-05-12T22:44:52.148Z,60.65
2023-05-12T22:47:20.007Z,58.81
2023-05-12T22:49:47.813Z,56.78
2023-05-12T22:52:15.678Z,57.27
2023-05-12T22:54:43.426Z,57.71
2023-05-12T22:57:11.195Z,58.67
2023-05-12T22:59:38.982Z,60.46
2023-05-12T23:02:06.759Z,61.54
2023-05-12T23:04:34.553Z,61.17
2023-05-12T23:07:02.266Z,61.60
2023-05-12T23:09:30.076Z,61.44
2023-05-12T23:11:57.950Z,60.87
2023-05-12T23:14:25.736Z,59.94
2023-05-12T23:16:53.670Z,60.07
2023-05-12T23:19:24.126Z,60.59
2023-05-12T23:21:51.928Z,58.76
2023-05-12T23:24:19.770Z,56.86
2023-05-12T23:26:47.629Z,56.96
2023-05-12T23:29:15.423Z,57.99
2023-05-12T23:31:43.386Z,59.02
2023-05-12T23:34:11.281Z,61.71
2023-05-12T23:36:39.114Z,64.33
2023-05-12T23:39:06.882Z,63.12
2023-05-12T23:41:36.421Z,61.28
2023-05-12T23:44:04.500Z,60.46
2023-05-12T23:46:32.286Z,60.34
2023-05-12T23:49:00.189Z,60.58
2023-05-12T23:51:28.853Z,59.06
2023-05-12T23:53:56.674Z,57.12
2023-05-12T23:56:24.469Z,57.66
2023-05-12T23:58:52.288Z,58.51
